Archival Weather

Chicago O'Hare International

Chicago, Illinois (KORD)

Report from: Sunday, March 6, 2022 3:51 AM CST
Current time: Saturday, February 4, 2023 11:17 PM CST

Current weather
Weather history
Weather forecast

Temperature6.1°C (43.0°F)
Wind chill0.5°C (32.9°F)
Dew point1.7°C (35.1°F)
Winds 24 kts (12.3 m/s, 27.6 mph) West (260°)
Wind gusts 38 kts (19.5 m/s, 43.7 mph)
Peak wind 41 kts (21.1 m/s, 47.2 mph) West-Southwest (250°) at 03:19
Visibility10 mi. (16.1 km)
Clouds Ceiling: Overcast 1,900 ft. (579 m)
Altimeter29.71 in.Hg (1006 mB)
Relative humidity73 %
Density altitude-725 ft. (-221 m)
Sea-level pressure100.6 kPa (1006 mB, 29.71 in.Hg)
Remarks System requires maintenance
Automated weather observing station with precipitation discriminator
Flight conditions Marginal Visual Meteorological Conditions
Raw dataKORD 060951Z 26024G38KT 10SM OVC019 06/02 A2971 RMK AO2 PK WND 25041/0919 SLP061 T00610017 $
An unhandled exception has occurred. See browser dev tools for details. Reload 🗙